sensor_id;sensor_type;location;lat;lon;timestamp;P1;durP1;ratioP1;P2;durP2;ratioP2
28007;SDS011;15333;50.010;20.020;2023-03-01T00:02:35;168.60;;;78.50;;
28007;SDS011;15333;50.010;20.020;2023-03-01T00:05:42;175.65;;;80.65;;
28007;SDS011;15333;50.010;20.020;2023-03-01T00:08:44;146.27;;;68.55;;
28007;SDS011;15333;50.010;20.020;2023-03-01T00:11:45;156.70;;;73.85;;
28007;SDS011;15333;50.010;20.020;2023-03-01T00:14:46;152.02;;;72.20;;
28007;SDS011;15333;50.010;20.020;2023-03-01T00:17:47;150.90;;;68.43;;
28007;SDS011;15333;50.010;20.020;2023-03-01T00:20:51;145.93;;;68.35;;
28007;SDS011;15333;50.010;20.020;2023-03-01T00:23:54;154.18;;;72.43;;
28007;SDS011;15333;50.010;20.020;2023-03-01T00:26:56;154.65;;;69.80;;
28007;SDS011;15333;50.010;20.020;2023-03-01T00:29:57;148.10;;;67.32;;
28007;SDS011;15333;50.010;20.020;2023-03-01T00:32:58;151.52;;;71.22;;
28007;SDS011;15333;50.010;20.020;2023-03-01T00:35:59;181.82;;;82.32;;
28007;SDS011;15333;50.010;20.020;2023-03-01T00:39:01;163.07;;;72.55;;
28007;SDS011;15333;50.010;20.020;2023-03-01T00:42:03;184.20;;;84.72;;
28007;SDS011;15333;50.010;20.020;2023-03-01T00:45:05;152.75;;;74.00;;
28007;SDS011;15333;50.010;20.020;2023-03-01T00:48:06;155.10;;;69.28;;
28007;SDS011;15333;50.010;20.020;2023-03-01T00:51:14;191.30;;;84.35;;
28007;SDS011;15333;50.010;20.020;2023-03-01T00:54:17;139.60;;;65.23;;
28007;SDS011;15333;50.010;20.020;2023-03-01T00:57:18;158.35;;;70.82;;
28007;SDS011;15333;50.010;20.020;2023-03-01T01:00:19;164.90;;;75.85;;
28007;SDS011;15333;50.010;20.020;2023-03-01T01:03:21;175.27;;;79.55;;
28007;SDS011;15333;50.010;20.020;2023-03-01T01:06:29;171.30;;;77.97;;
28007;SDS011;15333;50.010;20.020;2023-03-01T01:09:33;173.27;;;76.78;;
28007;SDS011;15333;50.010;20.020;2023-03-01T01:12:34;194.43;;;84.63;;
28007;SDS011;15333;50.010;20.020;2023-03-01T01:15:35;218.05;;;97.07;;
28007;SDS011;15333;50.010;20.020;2023-03-01T01:18:37;194.13;;;91.75;;
28007;SDS011;15333;50.010;20.020;2023-03-01T01:21:38;217.50;;;98.20;;
28007;SDS011;15333;50.010;20.020;2023-03-01T01:24:39;232.68;;;105.35;;
28007;SDS011;15333;50.010;20.020;2023-03-01T01:27:40;232.35;;;103.82;;
28007;SDS011;15333;50.010;20.020;2023-03-01T01:30:42;205.68;;;92.93;;
28007;SDS011;15333;50.010;20.020;2023-03-01T01:33:42;206.55;;;92.35;;
28007;SDS011;15333;50.010;20.020;2023-03-01T01:36:47;196.70;;;87.68;;
28007;SDS011;15333;50.010;20.020;2023-03-01T01:39:50;188.23;;;83.75;;
28007;SDS011;15333;50.010;20.020;2023-03-01T01:42:51;174.85;;;80.78;;
28007;SDS011;15333;50.010;20.020;2023-03-01T01:45:55;185.85;;;84.35;;
28007;SDS011;15333;50.010;20.020;2023-03-01T01:49:02;164.80;;;74.97;;
28007;SDS011;15333;50.010;20.020;2023-03-01T01:55:16;186.55;;;84.40;;
28007;SDS011;15333;50.010;20.020;2023-03-01T01:58:22;192.93;;;90.40;;
28007;SDS011;15333;50.010;20.020;2023-03-01T02:01:27;196.13;;;90.75;;
28007;SDS011;15333;50.010;20.020;2023-03-01T02:04:29;191.63;;;87.05;;
28007;SDS011;15333;50.010;20.020;2023-03-01T02:07:31;190.95;;;89.53;;
28007;SDS011;15333;50.010;20.020;2023-03-01T02:10:33;196.18;;;90.70;;
28007;SDS011;15333;50.010;20.020;2023-03-01T02:13:35;185.30;;;86.60;;
28007;SDS011;15333;50.010;20.020;2023-03-01T02:16:37;190.75;;;88.72;;
28007;SDS011;15333;50.010;20.020;2023-03-01T02:19:42;183.35;;;82.25;;
28007;SDS011;15333;50.010;20.020;2023-03-01T02:22:44;189.52;;;85.50;;
28007;SDS011;15333;50.010;20.020;2023-03-01T02:28:53;193.00;;;89.78;;
28007;SDS011;15333;50.010;20.020;2023-03-01T02:31:55;225.60;;;100.47;;
28007;SDS011;15333;50.010;20.020;2023-03-01T02:35:00;221.85;;;103.22;;
28007;SDS011;15333;50.010;20.020;2023-03-01T02:38:01;221.43;;;100.40;;
28007;SDS011;15333;50.010;20.020;2023-03-01T02:41:06;221.43;;;98.63;;
28007;SDS011;15333;50.010;20.020;2023-03-01T02:44:09;205.88;;;96.93;;
28007;SDS011;15333;50.010;20.020;2023-03-01T02:47:10;201.60;;;90.47;;
28007;SDS011;15333;50.010;20.020;2023-03-01T02:57:14;176.85;;;79.28;;
28007;SDS011;15333;50.010;20.020;2023-03-01T03:00:38;187.68;;;81.82;;
28007;SDS011;15333;50.010;20.020;2023-03-01T03:03:41;173.43;;;80.75;;
28007;SDS011;15333;50.010;20.020;2023-03-01T03:06:43;186.60;;;83.57;;
28007;SDS011;15333;50.010;20.020;2023-03-01T03:09:46;187.63;;;91.30;;
28007;SDS011;15333;50.010;20.020;2023-03-01T03:12:50;195.70;;;87.20;;
28007;SDS011;15333;50.010;20.020;2023-03-01T03:15:59;180.75;;;84.45;;
28007;SDS011;15333;50.010;20.020;2023-03-01T03:19:00;187.95;;;83.78;;
28007;SDS011;15333;50.010;20.020;2023-03-01T03:22:05;183.77;;;83.22;;
28007;SDS011;15333;50.010;20.020;2023-03-01T03:25:09;194.85;;;87.78;;
28007;SDS011;15333;50.010;20.020;2023-03-01T03:28:11;190.77;;;86.25;;
28007;SDS011;15333;50.010;20.020;2023-03-01T03:31:11;192.45;;;88.82;;
28007;SDS011;15333;50.010;20.020;2023-03-01T03:34:12;185.50;;;88.45;;
28007;SDS011;15333;50.010;20.020;2023-03-01T03:37:18;197.93;;;89.47;;
28007;SDS011;15333;50.010;20.020;2023-03-01T03:40:47;198.90;;;90.53;;
28007;SDS011;15333;50.010;20.020;2023-03-01T03:44:01;201.60;;;87.00;;
28007;SDS011;15333;50.010;20.020;2023-03-01T03:47:02;192.95;;;86.10;;
28007;SDS011;15333;50.010;20.020;2023-03-01T03:50:03;186.18;;;88.90;;
28007;SDS011;15333;50.010;20.020;2023-03-01T03:53:05;203.82;;;91.80;;
28007;SDS011;15333;50.010;20.020;2023-03-01T03:56:09;207.05;;;92.97;;
28007;SDS011;15333;50.010;20.020;2023-03-01T03:59:10;198.85;;;90.60;;
28007;SDS011;15333;50.010;20.020;2023-03-01T04:02:11;197.70;;;93.68;;
28007;SDS011;15333;50.010;20.020;2023-03-01T04:05:13;203.88;;;92.28;;
28007;SDS011;15333;50.010;20.020;2023-03-01T04:08:16;208.57;;;92.97;;
28007;SDS011;15333;50.010;20.020;2023-03-01T04:11:20;223.25;;;99.00;;
28007;SDS011;15333;50.010;20.020;2023-03-01T04:14:27;227.55;;;97.95;;
28007;SDS011;15333;50.010;20.020;2023-03-01T04:17:28;211.43;;;94.15;;
28007;SDS011;15333;50.010;20.020;2023-03-01T04:20:29;206.32;;;95.80;;
28007;SDS011;15333;50.010;20.020;2023-03-01T04:23:34;205.07;;;93.53;;
28007;SDS011;15333;50.010;20.020;2023-03-01T04:26:35;208.10;;;91.03;;
28007;SDS011;15333;50.010;20.020;2023-03-01T04:29:36;207.45;;;91.95;;
28007;SDS011;15333;50.010;20.020;2023-03-01T04:32:37;213.98;;;93.53;;
28007;SDS011;15333;50.010;20.020;2023-03-01T04:35:39;201.55;;;94.07;;
28007;SDS011;15333;50.010;20.020;2023-03-01T04:38:40;217.15;;;99.15;;
28007;SDS011;15333;50.010;20.020;2023-03-01T04:41:42;225.68;;;99.45;;
28007;SDS011;15333;50.010;20.020;2023-03-01T04:44:43;222.50;;;97.35;;
28007;SDS011;15333;50.010;20.020;2023-03-01T04:47:45;220.68;;;98.93;;
28007;SDS011;15333;50.010;20.020;2023-03-01T04:50:46;233.52;;;101.40;;
28007;SDS011;15333;50.010;20.020;2023-03-01T04:53:47;223.73;;;99.22;;
28007;SDS011;15333;50.010;20.020;2023-03-01T04:56:48;228.05;;;101.82;;
28007;SDS011;15333;50.010;20.020;2023-03-01T04:59:49;235.23;;;104.75;;
28007;SDS011;15333;50.010;20.020;2023-03-01T05:02:54;247.77;;;106.68;;
28007;SDS011;15333;50.010;20.020;2023-03-01T05:05:57;239.90;;;104.32;;
28007;SDS011;15333;50.010;20.020;2023-03-01T05:09:00;242.63;;;107.80;;
28007;SDS011;15333;50.010;20.020;2023-03-01T05:12:01;225.45;;;102.80;;
28007;SDS011;15333;50.010;20.020;2023-03-01T05:15:01;236.85;;;103.30;;
28007;SDS011;15333;50.010;20.020;2023-03-01T05:18:07;230.27;;;100.70;;
28007;SDS011;15333;50.010;20.020;2023-03-01T05:21:12;226.82;;;95.18;;
28007;SDS011;15333;50.010;20.020;2023-03-01T05:24:16;242.18;;;104.13;;
28007;SDS011;15333;50.010;20.020;2023-03-01T05:27:17;249.23;;;111.63;;
28007;SDS011;15333;50.010;20.020;2023-03-01T05:30:18;253.02;;;109.68;;
28007;SDS011;15333;50.010;20.020;2023-03-01T05:33:19;259.00;;;114.43;;
28007;SDS011;15333;50.010;20.020;2023-03-01T05:36:22;265.02;;;116.82;;
28007;SDS011;15333;50.010;20.020;2023-03-01T05:39:24;243.63;;;112.85;;
28007;SDS011;15333;50.010;20.020;2023-03-01T05:42:26;227.88;;;103.82;;
28007;SDS011;15333;50.010;20.020;2023-03-01T05:45:27;233.93;;;106.60;;
28007;SDS011;15333;50.010;20.020;2023-03-01T05:48:28;241.80;;;110.78;;
28007;SDS011;15333;50.010;20.020;2023-03-01T05:51:29;236.57;;;105.75;;
28007;SDS011;15333;50.010;20.020;2023-03-01T05:54:30;239.13;;;106.85;;
28007;SDS011;15333;50.010;20.020;2023-03-01T05:57:31;246.93;;;106.78;;
28007;SDS011;15333;50.010;20.020;2023-03-01T06:00:32;239.38;;;110.63;;
28007;SDS011;15333;50.010;20.020;2023-03-01T06:03:34;222.27;;;102.28;;
28007;SDS011;15333;50.010;20.020;2023-03-01T06:06:36;222.15;;;101.32;;
28007;SDS011;15333;50.010;20.020;2023-03-01T06:09:39;218.90;;;98.57;;
28007;SDS011;15333;50.010;20.020;2023-03-01T06:12:41;203.75;;;95.53;;
28007;SDS011;15333;50.010;20.020;2023-03-01T06:15:43;199.93;;;92.68;;
28007;SDS011;15333;50.010;20.020;2023-03-01T06:18:44;200.20;;;92.70;;
28007;SDS011;15333;50.010;20.020;2023-03-01T06:21:45;203.90;;;94.30;;
28007;SDS011;15333;50.010;20.020;2023-03-01T06:24:46;204.23;;;93.43;;
28007;SDS011;15333;50.010;20.020;2023-03-01T06:27:47;207.80;;;91.68;;
28007;SDS011;15333;50.010;20.020;2023-03-01T06:30:52;198.60;;;90.30;;
28007;SDS011;15333;50.010;20.020;2023-03-01T06:33:53;198.98;;;88.88;;
28007;SDS011;15333;50.010;20.020;2023-03-01T06:36:54;185.60;;;87.75;;
28007;SDS011;15333;50.010;20.020;2023-03-01T06:39:55;197.45;;;92.13;;
28007;SDS011;15333;50.010;20.020;2023-03-01T06:42:56;193.15;;;87.03;;
28007;SDS011;15333;50.010;20.020;2023-03-01T06:45:58;179.07;;;82.30;;
28007;SDS011;15333;50.010;20.020;2023-03-01T06:48:59;183.82;;;86.03;;
28007;SDS011;15333;50.010;20.020;2023-03-01T06:52:00;186.85;;;85.13;;
28007;SDS011;15333;50.010;20.020;2023-03-01T06:55:01;184.27;;;85.32;;
28007;SDS011;15333;50.010;20.020;2023-03-01T06:58:02;174.07;;;79.18;;
28007;SDS011;15333;50.010;20.020;2023-03-01T07:01:07;169.15;;;79.13;;
28007;SDS011;15333;50.010;20.020;2023-03-01T07:04:09;177.63;;;79.28;;
28007;SDS011;15333;50.010;20.020;2023-03-01T07:07:10;160.85;;;76.50;;
28007;SDS011;15333;50.010;20.020;2023-03-01T07:10:12;168.43;;;75.80;;
28007;SDS011;15333;50.010;20.020;2023-03-01T07:13:13;173.00;;;78.45;;
28007;SDS011;15333;50.010;20.020;2023-03-01T07:16:14;179.73;;;83.07;;
28007;SDS011;15333;50.010;20.020;2023-03-01T07:19:15;184.85;;;84.00;;
28007;SDS011;15333;50.010;20.020;2023-03-01T07:22:16;194.55;;;84.25;;
28007;SDS011;15333;50.010;20.020;2023-03-01T07:25:17;187.70;;;85.40;;
28007;SDS011;15333;50.010;20.020;2023-03-01T07:28:18;203.40;;;92.53;;
28007;SDS011;15333;50.010;20.020;2023-03-01T07:31:22;210.50;;;95.43;;
28007;SDS011;15333;50.010;20.020;2023-03-01T07:34:23;180.73;;;83.45;;
28007;SDS011;15333;50.010;20.020;2023-03-01T07:37:24;171.55;;;75.70;;
28007;SDS011;15333;50.010;20.020;2023-03-01T07:40:24;163.43;;;71.18;;
28007;SDS011;15333;50.010;20.020;2023-03-01T07:43:26;162.13;;;67.15;;
28007;SDS011;15333;50.010;20.020;2023-03-01T07:46:27;144.98;;;62.88;;
28007;SDS011;15333;50.010;20.020;2023-03-01T07:49:28;135.85;;;61.53;;
28007;SDS011;15333;50.010;20.020;2023-03-01T07:52:29;148.93;;;68.20;;
28007;SDS011;15333;50.010;20.020;2023-03-01T07:55:31;124.43;;;56.92;;
28007;SDS011;15333;50.010;20.020;2023-03-01T07:58:34;141.88;;;63.08;;
28007;SDS011;15333;50.010;20.020;2023-03-01T08:01:36;157.90;;;72.00;;
28007;SDS011;15333;50.010;20.020;2023-03-01T08:04:36;167.55;;;74.65;;
28007;SDS011;15333;50.010;20.020;2023-03-01T08:07:37;176.00;;;79.55;;
28007;SDS011;15333;50.010;20.020;2023-03-01T08:10:38;172.57;;;71.50;;
28007;SDS011;15333;50.010;20.020;2023-03-01T08:13:39;164.82;;;73.72;;
28007;SDS011;15333;50.010;20.020;2023-03-01T08:16:40;159.35;;;70.20;;
28007;SDS011;15333;50.010;20.020;2023-03-01T08:19:42;151.77;;;64.68;;
28007;SDS011;15333;50.010;20.020;2023-03-01T08:22:43;143.23;;;64.97;;
28007;SDS011;15333;50.010;20.020;2023-03-01T08:25:44;157.25;;;66.57;;
28007;SDS011;15333;50.010;20.020;2023-03-01T08:28:45;152.63;;;66.10;;
28007;SDS011;15333;50.010;20.020;2023-03-01T08:31:48;149.63;;;64.70;;
28007;SDS011;15333;50.010;20.020;2023-03-01T08:34:48;159.55;;;65.63;;
28007;SDS011;15333;50.010;20.020;2023-03-01T08:37:49;157.40;;;64.88;;
28007;SDS011;15333;50.010;20.020;2023-03-01T08:40:50;132.63;;;59.33;;
28007;SDS011;15333;50.010;20.020;2023-03-01T08:43:51;137.75;;;59.97;;
28007;SDS011;15333;50.010;20.020;2023-03-01T08:46:53;150.68;;;59.88;;
28007;SDS011;15333;50.010;20.020;2023-03-01T08:49:56;138.68;;;59.78;;
28007;SDS011;15333;50.010;20.020;2023-03-01T08:52:56;127.03;;;59.75;;
28007;SDS011;15333;50.010;20.020;2023-03-01T08:55:59;127.05;;;56.60;;
28007;SDS011;15333;50.010;20.020;2023-03-01T08:59:01;107.90;;;51.60;;
28007;SDS011;15333;50.010;20.020;2023-03-01T09:02:03;136.20;;;59.10;;
28007;SDS011;15333;50.010;20.020;2023-03-01T09:05:05;135.02;;;56.20;;
28007;SDS011;15333;50.010;20.020;2023-03-01T09:08:06;139.23;;;55.40;;
28007;SDS011;15333;50.010;20.020;2023-03-01T09:11:09;108.13;;;48.55;;
28007;SDS011;15333;50.010;20.020;2023-03-01T09:14:13;109.60;;;46.05;;
28007;SDS011;15333;50.010;20.020;2023-03-01T09:17:14;104.45;;;44.25;;
28007;SDS011;15333;50.010;20.020;2023-03-01T09:20:15;72.28;;;34.20;;
28007;SDS011;15333;50.010;20.020;2023-03-01T09:23:16;85.45;;;37.03;;
28007;SDS011;15333;50.010;20.020;2023-03-01T09:26:21;94.43;;;40.13;;
28007;SDS011;15333;50.010;20.020;2023-03-01T09:29:23;89.75;;;37.08;;
28007;SDS011;15333;50.010;20.020;2023-03-01T09:32:25;85.00;;;37.75;;
28007;SDS011;15333;50.010;20.020;2023-03-01T09:35:25;76.32;;;33.60;;
28007;SDS011;15333;50.010;20.020;2023-03-01T09:38:27;76.00;;;33.03;;
28007;SDS011;15333;50.010;20.020;2023-03-01T09:45:02;75.40;;;34.80;;
28007;SDS011;15333;50.010;20.020;2023-03-01T09:48:06;64.43;;;32.35;;
28007;SDS011;15333;50.010;20.020;2023-03-01T09:54:25;72.53;;;34.08;;
28007;SDS011;15333;50.010;20.020;2023-03-01T09:57:33;65.72;;;30.15;;
28007;SDS011;15333;50.010;20.020;2023-03-01T10:00:40;74.20;;;34.63;;
28007;SDS011;15333;50.010;20.020;2023-03-01T10:03:44;75.57;;;35.13;;
28007;SDS011;15333;50.010;20.020;2023-03-01T10:10:40;78.28;;;37.03;;
28007;SDS011;15333;50.010;20.020;2023-03-01T10:14:05;79.78;;;37.88;;
28007;SDS011;15333;50.010;20.020;2023-03-01T10:17:24;58.30;;;28.27;;
28007;SDS011;15333;50.010;20.020;2023-03-01T10:20:37;56.78;;;27.63;;
28007;SDS011;15333;50.010;20.020;2023-03-01T10:23:53;47.67;;;22.83;;
28007;SDS011;15333;50.010;20.020;2023-03-01T10:26:56;42.85;;;22.08;;
28007;SDS011;15333;50.010;20.020;2023-03-01T10:33:35;41.47;;;21.92;;
28007;SDS011;15333;50.010;20.020;2023-03-01T10:36:40;46.95;;;22.35;;
28007;SDS011;15333;50.010;20.020;2023-03-01T10:39:56;44.08;;;22.92;;
28007;SDS011;15333;50.010;20.020;2023-03-01T10:42:59;48.50;;;24.27;;
28007;SDS011;15333;50.010;20.020;2023-03-01T10:46:03;51.05;;;24.67;;
28007;SDS011;15333;50.010;20.020;2023-03-01T10:49:24;54.60;;;25.33;;
28007;SDS011;15333;50.010;20.020;2023-03-01T10:55:35;50.40;;;26.17;;
28007;SDS011;15333;50.010;20.020;2023-03-01T10:58:39;55.33;;;24.48;;
28007;SDS011;15333;50.010;20.020;2023-03-01T11:08:13;76.80;;;35.08;;
28007;SDS011;15333;50.010;20.020;2023-03-01T11:17:46;72.55;;;35.17;;
28007;SDS011;15333;50.010;20.020;2023-03-01T11:20:47;68.53;;;33.35;;
28007;SDS011;15333;50.010;20.020;2023-03-01T11:23:51;80.68;;;36.58;;
28007;SDS011;15333;50.010;20.020;2023-03-01T11:26:53;70.13;;;34.83;;
28007;SDS011;15333;50.010;20.020;2023-03-01T11:43:19;67.78;;;33.03;;
28007;SDS011;15333;50.010;20.020;2023-03-01T11:50:06;62.25;;;31.40;;
28007;SDS011;15333;50.010;20.020;2023-03-01T11:56:31;62.15;;;29.38;;
28007;SDS011;15333;50.010;20.020;2023-03-01T12:06:29;50.33;;;28.25;;
28007;SDS011;15333;50.010;20.020;2023-03-01T12:19:55;58.40;;;29.58;;
28007;SDS011;15333;50.010;20.020;2023-03-01T12:26:32;58.13;;;29.27;;
28007;SDS011;15333;50.010;20.020;2023-03-01T12:29:45;58.88;;;28.83;;
28007;SDS011;15333;50.010;20.020;2023-03-01T12:49:08;59.78;;;29.67;;
28007;SDS011;15333;50.010;20.020;2023-03-01T12:52:15;64.53;;;28.63;;
28007;SDS011;15333;50.010;20.020;2023-03-01T12:55:41;59.45;;;28.67;;
28007;SDS011;15333;50.010;20.020;2023-03-01T12:58:51;56.05;;;29.58;;
28007;SDS011;15333;50.010;20.020;2023-03-01T13:02:02;59.00;;;28.58;;
28007;SDS011;15333;50.010;20.020;2023-03-01T13:05:26;67.70;;;32.00;;
28007;SDS011;15333;50.010;20.020;2023-03-01T13:08:44;53.30;;;26.15;;
28007;SDS011;15333;50.010;20.020;2023-03-01T13:11:54;49.03;;;26.30;;
28007;SDS011;15333;50.010;20.020;2023-03-01T13:14:55;60.60;;;27.77;;
28007;SDS011;15333;50.010;20.020;2023-03-01T13:17:57;61.70;;;27.45;;
28007;SDS011;15333;50.010;20.020;2023-03-01T13:21:07;49.70;;;25.83;;
28007;SDS011;15333;50.010;20.020;2023-03-01T13:27:29;40.53;;;19.88;;
28007;SDS011;15333;50.010;20.020;2023-03-01T13:33:44;34.58;;;17.63;;
28007;SDS011;15333;50.010;20.020;2023-03-01T13:36:47;38.47;;;18.00;;
28007;SDS011;15333;50.010;20.020;2023-03-01T13:39:49;37.85;;;19.92;;
28007;SDS011;15333;50.010;20.020;2023-03-01T13:42:51;39.13;;;20.38;;
28007;SDS011;15333;50.010;20.020;2023-03-01T13:45:54;36.58;;;18.33;;
28007;SDS011;15333;50.010;20.020;2023-03-01T13:48:56;36.25;;;19.00;;
28007;SDS011;15333;50.010;20.020;2023-03-01T13:51:57;41.25;;;18.75;;
28007;SDS011;15333;50.010;20.020;2023-03-01T13:54:59;39.97;;;20.02;;
28007;SDS011;15333;50.010;20.020;2023-03-01T13:58:03;39.08;;;19.40;;
28007;SDS011;15333;50.010;20.020;2023-03-01T14:01:21;38.65;;;19.40;;
28007;SDS011;15333;50.010;20.020;2023-03-01T14:04:28;44.88;;;21.15;;
28007;SDS011;15333;50.010;20.020;2023-03-01T14:07:38;38.25;;;19.98;;
28007;SDS011;15333;50.010;20.020;2023-03-01T14:10:47;44.22;;;21.13;;
28007;SDS011;15333;50.010;20.020;2023-03-01T14:14:05;39.20;;;18.73;;
28007;SDS011;15333;50.010;20.020;2023-03-01T14:20:44;35.50;;;18.48;;
28007;SDS011;15333;50.010;20.020;2023-03-01T14:23:51;39.72;;;20.35;;
28007;SDS011;15333;50.010;20.020;2023-03-01T14:26:53;42.85;;;20.48;;
28007;SDS011;15333;50.010;20.020;2023-03-01T14:29:55;39.25;;;21.08;;
28007;SDS011;15333;50.010;20.020;2023-03-01T14:32:59;36.47;;;20.02;;
28007;SDS011;15333;50.010;20.020;2023-03-01T14:39:15;34.70;;;18.08;;
28007;SDS011;15333;50.010;20.020;2023-03-01T14:42:24;32.95;;;17.70;;
28007;SDS011;15333;50.010;20.020;2023-03-01T14:45:29;32.45;;;16.70;;
28007;SDS011;15333;50.010;20.020;2023-03-01T14:48:31;36.50;;;18.23;;
28007;SDS011;15333;50.010;20.020;2023-03-01T14:51:36;36.72;;;17.55;;
28007;SDS011;15333;50.010;20.020;2023-03-01T14:54:46;38.45;;;17.95;;
28007;SDS011;15333;50.010;20.020;2023-03-01T15:00:52;31.65;;;17.48;;
28007;SDS011;15333;50.010;20.020;2023-03-01T15:03:55;33.45;;;16.63;;
28007;SDS011;15333;50.010;20.020;2023-03-01T15:06:57;34.42;;;19.05;;
28007;SDS011;15333;50.010;20.020;2023-03-01T15:10:05;38.40;;;19.38;;
28007;SDS011;15333;50.010;20.020;2023-03-01T15:13:21;35.38;;;18.98;;
28007;SDS011;15333;50.010;20.020;2023-03-01T15:16:25;37.88;;;18.83;;
28007;SDS011;15333;50.010;20.020;2023-03-01T15:19:28;36.53;;;18.98;;
28007;SDS011;15333;50.010;20.020;2023-03-01T15:22:29;38.75;;;18.95;;
28007;SDS011;15333;50.010;20.020;2023-03-01T15:25:31;41.45;;;19.92;;
28007;SDS011;15333;50.010;20.020;2023-03-01T15:28:34;36.75;;;20.52;;
28007;SDS011;15333;50.010;20.020;2023-03-01T15:31:40;38.15;;;19.25;;
28007;SDS011;15333;50.010;20.020;2023-03-01T15:34:41;51.20;;;23.83;;
28007;SDS011;15333;50.010;20.020;2023-03-01T15:37:46;37.88;;;20.27;;
28007;SDS011;15333;50.010;20.020;2023-03-01T15:40:49;39.83;;;19.88;;
28007;SDS011;15333;50.010;20.020;2023-03-01T15:43:51;44.60;;;21.40;;
28007;SDS011;15333;50.010;20.020;2023-03-01T15:46:56;44.40;;;22.48;;
28007;SDS011;15333;50.010;20.020;2023-03-01T15:49:58;45.20;;;21.70;;
28007;SDS011;15333;50.010;20.020;2023-03-01T15:53:03;49.15;;;22.35;;
28007;SDS011;15333;50.010;20.020;2023-03-01T15:56:09;44.90;;;22.77;;
28007;SDS011;15333;50.010;20.020;2023-03-01T15:59:10;47.08;;;23.17;;
28007;SDS011;15333;50.010;20.020;2023-03-01T16:02:14;49.85;;;23.48;;
28007;SDS011;15333;50.010;20.020;2023-03-01T16:08:22;44.08;;;22.75;;
28007;SDS011;15333;50.010;20.020;2023-03-01T16:11:23;48.30;;;23.23;;
28007;SDS011;15333;50.010;20.020;2023-03-01T16:14:24;48.78;;;23.67;;
28007;SDS011;15333;50.010;20.020;2023-03-01T16:17:25;47.75;;;23.50;;
28007;SDS011;15333;50.010;20.020;2023-03-01T16:20:26;48.30;;;23.13;;
28007;SDS011;15333;50.010;20.020;2023-03-01T16:23:30;50.33;;;23.88;;
28007;SDS011;15333;50.010;20.020;2023-03-01T16:26:30;47.63;;;23.30;;
28007;SDS011;15333;50.010;20.020;2023-03-01T16:29:31;52.85;;;25.95;;
28007;SDS011;15333;50.010;20.020;2023-03-01T16:32:32;48.95;;;25.27;;
28007;SDS011;15333;50.010;20.020;2023-03-01T16:35:33;58.30;;;26.27;;
28007;SDS011;15333;50.010;20.020;2023-03-01T16:38:39;47.65;;;24.63;;
28007;SDS011;15333;50.010;20.020;2023-03-01T16:41:40;50.10;;;24.58;;
28007;SDS011;15333;50.010;20.020;2023-03-01T16:44:41;53.35;;;24.65;;
28007;SDS011;15333;50.010;20.020;2023-03-01T16:47:42;59.03;;;26.85;;
28007;SDS011;15333;50.010;20.020;2023-03-01T16:50:43;56.63;;;27.70;;
28007;SDS011;15333;50.010;20.020;2023-03-01T16:53:44;44.55;;;22.98;;
28007;SDS011;15333;50.010;20.020;2023-03-01T16:56:45;51.40;;;22.65;;
28007;SDS011;15333;50.010;20.020;2023-03-01T16:59:46;49.70;;;23.38;;
28007;SDS011;15333;50.010;20.020;2023-03-01T17:02:47;49.22;;;22.98;;
28007;SDS011;15333;50.010;20.020;2023-03-01T17:05:49;45.10;;;21.45;;
28007;SDS011;15333;50.010;20.020;2023-03-01T17:08:50;42.78;;;20.92;;
28007;SDS011;15333;50.010;20.020;2023-03-01T17:11:51;46.17;;;21.77;;
28007;SDS011;15333;50.010;20.020;2023-03-01T17:14:52;54.35;;;23.60;;
28007;SDS011;15333;50.010;20.020;2023-03-01T17:17:53;63.33;;;24.17;;
28007;SDS011;15333;50.010;20.020;2023-03-01T17:20:54;59.47;;;26.30;;
28007;SDS011;15333;50.010;20.020;2023-03-01T17:23:55;54.60;;;25.75;;
28007;SDS011;15333;50.010;20.020;2023-03-01T17:26:57;65.43;;;28.80;;
28007;SDS011;15333;50.010;20.020;2023-03-01T17:29:58;64.90;;;32.03;;
28007;SDS011;15333;50.010;20.020;2023-03-01T17:32:59;77.60;;;33.17;;
28007;SDS011;15333;50.010;20.020;2023-03-01T17:36:00;75.60;;;32.72;;
28007;SDS011;15333;50.010;20.020;2023-03-01T17:39:01;86.40;;;38.22;;
28007;SDS011;15333;50.010;20.020;2023-03-01T17:42:03;82.32;;;38.15;;
28007;SDS011;15333;50.010;20.020;2023-03-01T17:45:05;93.65;;;41.13;;
28007;SDS011;15333;50.010;20.020;2023-03-01T17:48:07;85.85;;;41.25;;
28007;SDS011;15333;50.010;20.020;2023-03-01T17:51:09;99.53;;;41.75;;
28007;SDS011;15333;50.010;20.020;2023-03-01T17:54:11;98.53;;;44.08;;
28007;SDS011;15333;50.010;20.020;2023-03-01T17:57:12;97.13;;;42.97;;
28007;SDS011;15333;50.010;20.020;2023-03-01T18:00:14;99.07;;;41.97;;
28007;SDS011;15333;50.010;20.020;2023-03-01T18:03:16;89.78;;;40.08;;
28007;SDS011;15333;50.010;20.020;2023-03-01T18:06:18;104.32;;;43.40;;
28007;SDS011;15333;50.010;20.020;2023-03-01T18:09:21;88.68;;;42.72;;
28007;SDS011;15333;50.010;20.020;2023-03-01T18:12:22;117.63;;;50.05;;
28007;SDS011;15333;50.010;20.020;2023-03-01T18:15:22;121.28;;;51.42;;
28007;SDS011;15333;50.010;20.020;2023-03-01T18:18:24;114.97;;;51.72;;
28007;SDS011;15333;50.010;20.020;2023-03-01T18:21:24;120.32;;;53.13;;
28007;SDS011;15333;50.010;20.020;2023-03-01T18:24:26;133.20;;;60.65;;
28007;SDS011;15333;50.010;20.020;2023-03-01T18:27:27;134.10;;;61.13;;
28007;SDS011;15333;50.010;20.020;2023-03-01T18:30:28;142.82;;;65.28;;
28007;SDS011;15333;50.010;20.020;2023-03-01T18:33:29;144.88;;;63.50;;
28007;SDS011;15333;50.010;20.020;2023-03-01T18:36:32;136.05;;;62.45;;
28007;SDS011;15333;50.010;20.020;2023-03-01T18:39:34;136.40;;;62.67;;
28007;SDS011;15333;50.010;20.020;2023-03-01T18:42:35;129.32;;;58.08;;
28007;SDS011;15333;50.010;20.020;2023-03-01T18:45:36;124.13;;;55.30;;
28007;SDS011;15333;50.010;20.020;2023-03-01T18:48:37;124.47;;;53.67;;
28007;SDS011;15333;50.010;20.020;2023-03-01T18:51:39;118.13;;;54.53;;
28007;SDS011;15333;50.010;20.020;2023-03-01T18:54:41;124.70;;;53.97;;
28007;SDS011;15333;50.010;20.020;2023-03-01T18:57:42;115.88;;;52.65;;
28007;SDS011;15333;50.010;20.020;2023-03-01T19:00:43;124.82;;;52.03;;
28007;SDS011;15333;50.010;20.020;2023-03-01T19:03:44;115.07;;;52.63;;
28007;SDS011;15333;50.010;20.020;2023-03-01T19:06:45;121.38;;;52.88;;
28007;SDS011;15333;50.010;20.020;2023-03-01T19:09:46;117.97;;;50.83;;
28007;SDS011;15333;50.010;20.020;2023-03-01T19:12:47;114.95;;;50.85;;
28007;SDS011;15333;50.010;20.020;2023-03-01T19:15:48;122.82;;;50.95;;
28007;SDS011;15333;50.010;20.020;2023-03-01T19:18:49;116.65;;;48.03;;
28007;SDS011;15333;50.010;20.020;2023-03-01T19:21:51;118.10;;;49.67;;
28007;SDS011;15333;50.010;20.020;2023-03-01T19:24:52;107.90;;;48.03;;
28007;SDS011;15333;50.010;20.020;2023-03-01T19:27:53;106.88;;;46.15;;